Relatórios de METAR próximas

 

LPAR - Alverca, Portugal
Distance from station: SO 47km
Actualizado: 26/05/2017 12:00
NÃO Actual
Muito Nublado
Muito Nublado
 Vento de varies
Vento: varies 0 km/h
Temperatura: 20°C
Ponto de Orvalho: 15°C
Humidade: 73%
Barómetro: 1013 hPa
Nuvens: Muito Nublado
Visibilidade: 10 km
Cloud details: Parc. Nublado 366 m
Muito Nublado 549 m
2017/05/26 11:00 LPAR 261100Z /////KT 9999 SCT012 BKN018 20/15 Q1013
LPPT - Lisbon/Portela, Portugal
Distance from station: SO 61km
Actualizado: 26/05/2017 13:30
Muito Nublado
Muito Nublado
 Vento de NO
Vento: NO 9 km/h
Temperatura: 20°C
Ponto de Orvalho: 15°C
Humidade: 73%
Barómetro: 1014 hPa
Nuvens: Muito Nublado
Visibilidade: 10 km
Cloud details: Few Clouds 610 m
Muito Nublado 732 m
2017/05/26 12:30 LPPT 261230Z 32005KT 260V360 9999 FEW020 BKN024 20/15 Q1014
 
LPMT - Montijo (por-Afb, Portugal
Distance from station: SO 62km
Actualizado: 26/05/2017 13:00
Encoberto
Encoberto
 Vento de NNO
Vento: NNO 7 km/h
Temperatura: 21°C
Ponto de Orvalho: 15°C
Humidade: 69%
Barómetro: 1014 hPa
Nuvens: Encoberto
Visibilidade: 9 km
Cloud details: Few Clouds 457 m
Encoberto 671 m
2017/05/26 12:00 LPMT 261200Z 34004KT 270V050 9000 FEW015 OVC022 21/15 Q1014
LPST - Sintra/Granja (a, Portugal
Distance from station: OSO 72km
Actualizado: 26/05/2017 13:00
Muito Nublado
Muito Nublado
 Vento de NO
Vento: NO 15 km/h
Temperatura: 18°C
Ponto de Orvalho: 15°C
Humidade: 83%
Barómetro: 1015 hPa
Nuvens: Muito Nublado
Visibilidade: 10 km
Cloud details: Parc. Nublado 274 m
Muito Nublado 427 m
2017/05/26 12:00 LPST 261200Z 31008KT 290V350 9999 SCT009 BKN014 18/15 Q1015
 
LPMR - Monte Real(Por-A, Portugal
Distance from station: NNO 80km
Actualizado: 26/05/2017 13:00
Muito Nublado
Muito Nublado
 Vento de NO
Vento: NO 9 km/h
Temperatura: 19°C
Ponto de Orvalho: 14°C
Humidade: 73%
Barómetro: 1014 hPa
Nuvens: Muito Nublado
Visibilidade: 10 km
Cloud details: Muito Nublado 549 m
2017/05/26 12:00 LPMR 261200Z 32005KT 290V360 9999 BKN018 19/14 Q1014
LPBJ - Beja (por/Ger-Af, Portugal
Distance from station: SSE 139km
Actualizado: 26/05/2017 13:00
Encoberto
Encoberto
 Vento de SO
Vento: SO 9 km/h
Temperatura: 21°C
Ponto de Orvalho: 16°C
Humidade: 73%
Barómetro: 1014 hPa
Nuvens: Encoberto
Visibilidade: 10 km
Cloud details: Encoberto 610 m
2017/05/26 12:00 LPBJ 261200Z 22005KT 190V250 9999 OVC020 21/16 Q1014